Time;durP1;ratioP1;P1;durP2;ratioP2;P2;SDS_P1;SDS_P2;PMS_P1;PMS_P2;Temp;Humidity;BMP_temperature;BMP_pressure;BME280_temperature;BME280_humidity;BME280_pressure;Samples;Min_cycle;Max_cycle;Signal;HPM_P1;HPM_P2
2022/06/26 00:00:25;;;;;;;8.23;7.47;;;23.40;95.30;;;;;;4978113;28;20947;-80
2022/06/26 00:02:53;;;;;;;7.57;6.97;;;23.30;95.30;;;;;;4976152;28;20453;-79
2022/06/26 00:05:23;;;;;;;9.40;7.57;;;23.30;95.40;;;;;;4976715;28;20445;-79
2022/06/26 00:07:52;;;;;;;8.07;7.37;;;23.20;95.40;;;;;;4977211;28;20465;-79
2022/06/26 00:10:21;;;;;;;7.23;6.73;;;23.20;95.40;;;;;;4977140;28;20784;-79
2022/06/26 00:12:49;;;;;;;6.70;6.13;;;23.20;95.40;;;;;;4975895;28;20817;-79
2022/06/26 00:15:17;;;;;;;7.40;6.90;;;23.20;95.40;;;;;;4976863;28;20496;-79
2022/06/26 00:17:46;;;;;;;7.73;7.13;;;23.10;95.40;;;;;;4975669;28;20998;-79
2022/06/26 00:20:14;;;;;;;6.80;6.40;;;23.10;95.40;;;;;;4975841;28;20490;-79
2022/06/26 00:22:42;;;;;;;7.60;6.30;;;23.10;95.50;;;;;;4976894;28;20537;-79
2022/06/26 00:25:12;;;;;;;7.33;6.60;;;23.00;95.40;;;;;;4976851;28;20782;-79
2022/06/26 00:27:41;;;;;;;8.20;7.47;;;23.00;95.50;;;;;;4974565;28;20874;-79
2022/06/26 00:30:10;;;;;;;7.87;7.20;;;23.00;95.50;;;;;;4975184;28;20509;-79
2022/06/26 00:32:38;;;;;;;6.83;6.23;;;23.00;95.50;;;;;;4977029;28;20441;-79
2022/06/26 00:35:08;;;;;;;6.80;6.30;;;22.90;95.50;;;;;;4977562;28;20469;-79
2022/06/26 00:37:37;;;;;;;6.83;6.33;;;22.90;95.40;;;;;;4977319;28;20564;-79
2022/06/26 00:40:07;;;;;;;6.90;6.40;;;22.90;95.40;;;;;;4977905;28;20445;-79
2022/06/26 00:42:37;;;;;;;7.13;6.60;;;22.80;95.40;;;;;;4976122;28;20481;-79
2022/06/26 00:45:06;;;;;;;7.10;6.60;;;22.80;95.50;;;;;;4977478;28;20532;-79
2022/06/26 00:47:34;;;;;;;7.77;6.90;;;22.80;95.50;;;;;;4975699;28;20488;-79
2022/06/26 00:50:05;;;;;;;7.60;6.90;;;22.80;95.60;;;;;;4977121;28;20433;-79
2022/06/26 00:52:34;;;;;;;7.50;6.80;;;22.70;95.60;;;;;;4975653;28;20450;-79
2022/06/26 00:55:03;;;;;;;7.13;6.53;;;22.70;95.70;;;;;;4975991;28;20460;-79
2022/06/26 00:57:33;;;;;;;7.00;6.40;;;22.70;95.70;;;;;;4975463;28;20517;-79
2022/06/26 01:00:05;;;;;;;6.93;6.43;;;22.60;95.70;;;;;;4976167;28;20524;-79
2022/06/26 01:02:33;;;;;;;6.30;5.80;;;22.60;95.80;;;;;;4975765;28;20489;-79
2022/06/26 01:05:02;;;;;;;7.20;6.70;;;22.50;95.80;;;;;;4975268;28;20552;-79
2022/06/26 01:07:31;;;;;;;7.20;6.50;;;22.50;95.80;;;;;;4975794;28;20505;-79
2022/06/26 01:10:01;;;;;;;6.60;6.10;;;22.50;95.80;;;;;;4976551;28;20446;-79
2022/06/26 01:12:29;;;;;;;6.33;5.80;;;22.40;95.80;;;;;;4975625;28;20459;-79
2022/06/26 01:15:01;;;;;;;7.23;6.30;;;22.40;95.90;;;;;;4976507;28;20931;-79
2022/06/26 01:17:32;;;;;;;8.03;6.70;;;22.40;95.90;;;;;;4975880;28;20536;-79
2022/06/26 01:20:01;;;;;;;6.97;6.20;;;22.30;95.90;;;;;;4977481;28;20426;-79
2022/06/26 01:22:32;;;;;;;7.03;6.43;;;22.30;96.00;;;;;;4977516;28;20480;-79
2022/06/26 01:25:00;;;;;;;6.43;6.00;;;22.30;96.00;;;;;;4975566;28;20456;-79
2022/06/26 01:27:29;;;;;;;6.60;6.00;;;22.30;96.00;;;;;;4975739;28;20560;-79
2022/06/26 01:29:58;;;;;;;6.87;6.37;;;22.20;96.00;;;;;;4975580;28;20842;-79
2022/06/26 01:32:27;;;;;;;7.13;6.50;;;22.20;96.10;;;;;;4975124;28;20461;-79
2022/06/26 01:34:55;;;;;;;6.20;5.80;;;22.20;96.10;;;;;;4975647;28;20536;-79
2022/06/26 01:37:25;;;;;;;6.97;6.17;;;22.10;96.10;;;;;;4976104;28;20485;-79
2022/06/26 01:39:55;;;;;;;6.77;6.30;;;22.10;96.10;;;;;;4978573;28;20449;-79
2022/06/26 01:42:23;;;;;;;8.23;7.43;;;22.00;96.10;;;;;;4978831;28;20485;-79
2022/06/26 01:44:52;;;;;;;6.20;5.70;;;22.00;96.20;;;;;;4979306;28;20449;-79
2022/06/26 01:47:22;;;;;;;7.13;6.43;;;22.00;96.30;;;;;;4978760;28;20441;-79
2022/06/26 01:49:51;;;;;;;6.90;6.40;;;21.90;96.20;;;;;;4979520;28;20820;-79
2022/06/26 01:52:19;;;;;;;7.87;7.17;;;21.90;96.30;;;;;;4978910;28;20450;-79
2022/06/26 01:54:49;;;;;;;7.20;6.70;;;21.90;96.40;;;;;;4978339;28;20453;-79
2022/06/26 01:57:19;;;;;;;7.60;6.83;;;21.80;96.40;;;;;;4980209;28;20464;-79
2022/06/26 01:59:50;;;;;;;7.50;6.77;;;21.80;96.40;;;;;;4980776;28;20504;-79
2022/06/26 02:02:23;;;;;;;7.30;6.80;;;21.80;96.50;;;;;;4981064;28;20438;-79
2022/06/26 02:04:51;;;;;;;7.00;6.40;;;21.70;96.50;;;;;;4980881;28;20802;-79
2022/06/26 02:07:19;;;;;;;7.17;6.67;;;21.70;96.60;;;;;;4979122;28;20449;-81
2022/06/26 02:15:31;;;;;;;6.77;6.23;;;21.60;96.60;;;;;;4982122;28;20449;-79
2022/06/26 02:18:03;;;;;;;6.73;6.23;;;21.50;96.60;;;;;;4980412;28;20473;-79
2022/06/26 02:20:31;;;;;;;6.97;6.37;;;21.50;96.70;;;;;;4980805;28;20450;-80
2022/06/26 02:22:59;;;;;;;8.50;7.77;;;21.50;96.70;;;;;;4980827;28;20445;-79
2022/06/26 02:25:29;;;;;;;7.00;6.50;;;21.40;96.70;;;;;;4981456;28;20456;-79
2022/06/26 02:27:58;;;;;;;7.40;6.90;;;21.40;97.00;;;;;;4981556;28;20473;-79
2022/06/26 02:30:26;;;;;;;7.50;6.90;;;21.40;96.80;;;;;;4981973;28;20434;-79
2022/06/26 02:32:56;;;;;;;7.23;6.73;;;21.30;96.80;;;;;;4980149;28;20528;-79
2022/06/26 02:35:25;;;;;;;6.50;6.03;;;21.30;96.80;;;;;;4979711;28;20504;-79
2022/06/26 02:37:55;;;;;;;7.20;6.67;;;21.30;96.90;;;;;;4979817;28;20824;-79
2022/06/26 02:40:24;;;;;;;6.40;5.90;;;21.20;96.90;;;;;;4980804;28;20426;-79
2022/06/26 02:42:54;;;;;;;7.00;6.50;;;21.20;97.00;;;;;;4979372;28;20458;-79
2022/06/26 02:45:24;;;;;;;7.30;6.70;;;21.20;97.00;;;;;;4979242;28;20818;-79
2022/06/26 02:47:52;;;;;;;7.27;6.77;;;21.10;97.00;;;;;;4978245;28;20469;-79
2022/06/26 02:50:20;;;;;;;6.80;6.20;;;21.10;97.10;;;;;;4979385;28;20458;-79
2022/06/26 02:52:49;;;;;;;8.10;7.40;;;21.10;97.10;;;;;;4979445;28;20461;-81
2022/06/26 02:55:18;;;;;;;7.50;7.00;;;21.00;97.10;;;;;;4980212;28;20838;-79
2022/06/26 02:57:46;;;;;;;6.43;5.93;;;20.90;97.20;;;;;;4979210;28;20500;-79
2022/06/26 03:00:16;;;;;;;7.77;7.17;;;20.90;97.20;;;;;;4979655;28;20548;-80
2022/06/26 03:02:48;;;;;;;7.30;6.80;;;20.90;97.30;;;;;;4980029;28;20548;-80
2022/06/26 03:05:17;;;;;;;6.97;6.57;;;20.80;97.30;;;;;;4983351;28;20444;-79
2022/06/26 03:07:45;;;;;;;8.10;7.47;;;20.90;97.40;;;;;;4986400;28;20462;-80
2022/06/26 03:10:13;;;;;;;7.30;6.80;;;20.80;97.70;;;;;;4984599;28;20450;-79
2022/06/26 03:12:47;;;;;;;8.00;7.40;;;20.80;97.50;;;;;;4982750;28;20457;-79
2022/06/26 03:15:15;;;;;;;7.40;6.80;;;20.70;97.80;;;;;;4981983;28;20444;-79
2022/06/26 03:17:44;;;;;;;7.83;7.23;;;20.70;97.70;;;;;;4983131;28;20469;-79
2022/06/26 03:20:17;;;;;;;7.83;6.80;;;20.70;97.80;;;;;;4983392;28;20474;-79
2022/06/26 03:22:47;;;;;;;8.10;7.53;;;20.70;97.80;;;;;;4982896;28;20552;-79
2022/06/26 03:25:17;;;;;;;8.30;7.60;;;20.60;97.90;;;;;;4982670;28;20458;-80
2022/06/26 03:27:46;;;;;;;7.40;6.90;;;20.60;97.90;;;;;;4982285;28;21038;-80
2022/06/26 03:30:15;;;;;;;7.37;6.87;;;20.60;98.00;;;;;;4983324;28;20492;-79
2022/06/26 03:32:49;;;;;;;8.13;7.43;;;20.50;98.00;;;;;;4979882;28;20430;-79
2022/06/26 03:35:19;;;;;;;7.43;6.93;;;20.50;98.10;;;;;;4978436;28;20457;-79
2022/06/26 03:37:48;;;;;;;8.30;7.60;;;20.50;98.20;;;;;;4979525;28;20469;-79
2022/06/26 03:40:16;;;;;;;8.27;7.60;;;20.50;98.20;;;;;;4979092;28;20494;-79
2022/06/26 03:42:45;;;;;;;8.63;7.73;;;20.50;98.30;;;;;;4979282;28;20489;-79
2022/06/26 03:45:14;;;;;;;8.40;7.80;;;20.50;98.30;;;;;;4978276;28;20485;-79
2022/06/26 03:47:42;;;;;;;8.30;7.70;;;20.40;98.40;;;;;;4979352;28;21032;-79
2022/06/26 03:50:11;;;;;;;7.87;7.37;;;20.40;98.40;;;;;;4979056;28;20458;-79
2022/06/26 03:52:47;;;;;;;8.73;8.03;;;20.40;98.50;;;;;;4978450;28;20433;-79
2022/06/26 03:55:15;;;;;;;9.17;8.40;;;20.40;98.60;;;;;;4978436;28;20895;-79
2022/06/26 03:57:43;;;;;;;8.50;7.90;;;20.40;98.60;;;;;;4977226;28;20523;-80
2022/06/26 04:00:12;;;;;;;8.67;7.97;;;20.40;99.00;;;;;;4976982;28;20481;-79
2022/06/26 04:02:45;;;;;;;9.20;8.50;;;20.40;98.80;;;;;;4978595;28;20481;-79
2022/06/26 04:05:24;;;;;;;7.77;7.17;;;20.40;98.80;;;;;;4977725;28;20461;-79
2022/06/26 04:07:58;;;;;;;8.47;7.87;;;20.40;98.90;;;;;;4978151;28;20557;-79
2022/06/26 04:10:44;;;;;;;8.93;8.23;;;20.40;99.00;;;;;;4977339;28;20445;-79
2022/06/26 04:13:26;;;;;;;8.40;7.80;;;20.40;99.00;;;;;;4978528;28;20448;-79
2022/06/26 04:15:56;;;;;;;8.43;7.93;;;20.40;99.10;;;;;;4977861;28;20876;-79
2022/06/26 04:18:25;;;;;;;8.63;8.03;;;20.40;99.10;;;;;;4978693;28;20485;-80
2022/06/26 04:20:55;;;;;;;8.40;7.70;;;20.40;99.20;;;;;;4976611;28;20442;-79
2022/06/26 04:23:25;;;;;;;8.30;7.70;;;20.40;99.20;;;;;;4977859;28;20485;-79
2022/06/26 04:25:59;;;;;;;8.57;7.97;;;20.40;99.30;;;;;;4978721;28;20528;-80
2022/06/26 04:28:27;;;;;;;8.70;7.10;;;20.40;99.30;;;;;;4978091;28;20481;-80
2022/06/26 04:30:59;;;;;;;8.40;7.70;;;20.40;99.30;;;;;;4978836;28;20442;-80
2022/06/26 04:33:27;;;;;;;8.20;7.70;;;20.40;99.40;;;;;;4978408;28;20461;-80
2022/06/26 04:35:56;;;;;;;8.70;7.80;;;20.40;99.40;;;;;;4978516;28;20452;-79
2022/06/26 04:38:25;;;;;;;8.07;7.47;;;20.40;99.50;;;;;;4978460;28;20851;-79
2022/06/26 04:40:54;;;;;;;8.73;7.97;;;20.40;99.50;;;;;;4977779;28;21014;-80
2022/06/26 04:43:23;;;;;;;8.27;7.67;;;20.40;99.50;;;;;;4977205;28;20464;-79
2022/06/26 04:45:51;;;;;;;9.20;8.50;;;20.50;99.60;;;;;;4977053;28;20464;-79
2022/06/26 04:48:20;;;;;;;8.70;8.00;;;20.50;99.90;;;;;;4978378;28;20470;-80
2022/06/26 04:50:49;;;;;;;9.17;8.47;;;20.50;99.70;;;;;;4977611;28;20446;-79
2022/06/26 04:53:19;;;;;;;8.87;8.17;;;20.50;99.90;;;;;;4976816;28;20823;-80
2022/06/26 04:55:48;;;;;;;8.57;7.87;;;20.60;99.80;;;;;;4976261;28;20488;-79
2022/06/26 04:58:17;;;;;;;8.90;8.17;;;20.60;99.80;;;;;;4977494;28;20466;-79
2022/06/26 05:00:45;;;;;;;9.10;8.47;;;20.60;99.80;;;;;;4976535;28;20485;-80
2022/06/26 05:03:24;;;;;;;8.87;8.27;;;20.70;99.80;;;;;;4977973;28;20488;-79
2022/06/26 05:06:18;;;;;;;8.53;7.93;;;20.70;99.90;;;;;;4992487;28;20449;-80
2022/06/26 05:09:13;;;;;;;9.07;8.37;;;20.70;99.90;;;;;;4976037;28;20486;-79
2022/06/26 05:11:42;;;;;;;7.47;6.83;;;20.80;99.90;;;;;;4977827;28;20477;-80
2022/06/26 05:14:11;;;;;;;8.23;7.63;;;20.80;99.90;;;;;;4981399;28;20457;-80
2022/06/26 05:16:51;;;;;;;8.23;7.60;;;20.90;99.90;;;;;;4980340;28;20528;-81
2022/06/26 05:19:25;;;;;;;8.10;7.30;;;20.90;99.90;;;;;;4980888;28;20477;-80
2022/06/26 05:21:59;;;;;;;10.30;8.30;;;21.00;99.90;;;;;;4981198;28;20457;-80
2022/06/26 05:24:27;;;;;;;8.07;7.37;;;21.10;99.90;;;;;;4980222;28;20548;-80
2022/06/26 05:26:58;;;;;;;8.40;7.47;;;21.10;99.90;;;;;;4980446;28;20449;-80
2022/06/26 05:29:27;;;;;;;8.30;7.60;;;21.20;99.90;;;;;;4979783;28;20465;-80
2022/06/26 05:31:57;;;;;;;8.83;8.07;;;21.30;99.90;;;;;;4980423;28;20811;-80
2022/06/26 05:34:25;;;;;;;7.73;7.13;;;21.30;99.90;;;;;;4981340;28;20453;-80
2022/06/26 05:36:53;;;;;;;8.97;8.27;;;21.40;99.90;;;;;;4981819;28;20446;-80
2022/06/26 05:39:22;;;;;;;9.50;7.53;;;21.40;99.90;;;;;;4982202;28;20913;-80
2022/06/26 05:41:50;;;;;;;8.90;8.20;;;21.40;99.90;;;;;;4983166;28;20472;-80
2022/06/26 05:44:21;;;;;;;8.17;7.57;;;21.50;99.90;;;;;;4980224;28;20462;-80
2022/06/26 05:46:52;;;;;;;10.40;8.10;;;21.50;99.90;;;;;;4980571;28;20476;-79
2022/06/26 05:49:20;;;;;;;9.30;8.60;;;21.60;99.90;;;;;;4981724;28;20457;-81
2022/06/26 05:52:07;;;;;;;9.77;8.97;;;21.70;99.90;;;;;;4981404;28;20517;-80
2022/06/26 05:54:54;;;;;;;10.13;9.27;;;21.90;99.90;;;;;;4979459;28;20950;-80
2022/06/26 05:57:40;;;;;;;10.50;9.60;;;22.10;99.90;;;;;;4980288;28;20477;-81
2022/06/26 06:00:27;;;;;;;10.73;9.80;;;22.40;99.90;;;;;;4980795;28;20484;-80
2022/06/26 06:02:56;;;;;;;11.27;10.37;;;22.60;99.80;;;;;;4981462;28;20444;-82
2022/06/26 06:05:26;;;;;;;13.00;12.00;;;22.90;99.70;;;;;;4980409;28;20975;-80
2022/06/26 06:07:55;;;;;;;11.20;10.30;;;23.10;99.50;;;;;;4979673;28;20477;-80
2022/06/26 06:10:25;;;;;;;14.30;13.30;;;23.30;99.40;;;;;;4980138;28;20450;-80
2022/06/26 06:12:55;;;;;;;13.70;12.60;;;23.40;99.30;;;;;;4979386;28;20442;-80
2022/06/26 06:15:24;;;;;;;13.53;12.57;;;23.60;99.30;;;;;;4979287;28;20485;-80
2022/06/26 06:17:57;;;;;;;13.27;12.27;;;23.90;99.30;;;;;;4978929;28;21002;-80
2022/06/26 06:20:25;;;;;;;13.77;12.83;;;24.00;99.10;;;;;;4978966;28;20514;-80
2022/06/26 06:22:56;;;;;;;14.23;13.13;;;24.20;99.10;;;;;;4979123;28;20453;-80
2022/06/26 06:25:24;;;;;;;14.97;13.77;;;24.20;98.90;;;;;;4977972;28;20494;-79
2022/06/26 06:27:53;;;;;;;15.00;13.60;;;24.20;98.80;;;;;;4979238;28;20479;-80
2022/06/26 06:30:28;;;;;;;15.47;14.37;;;24.00;98.70;;;;;;4979100;28;20523;-79
2022/06/26 06:33:00;;;;;;;17.17;15.90;;;23.90;98.70;;;;;;4978309;28;20505;-79
2022/06/26 06:35:41;;;;;;;17.40;16.20;;;23.80;98.80;;;;;;4978826;28;20488;-80
2022/06/26 06:38:10;;;;;;;16.27;15.17;;;23.60;98.80;;;;;;4978907;28;20568;-80
2022/06/26 06:40:40;;;;;;;16.23;15.00;;;23.60;99.00;;;;;;4978951;28;20536;-80
2022/06/26 06:43:11;;;;;;;16.10;14.80;;;23.60;99.00;;;;;;4980762;28;20438;-80
2022/06/26 06:46:08;;;;;;;14.60;13.60;;;23.60;99.10;;;;;;4996361;28;20824;-80
2022/06/26 06:48:39;;;;;;;16.13;14.77;;;23.60;99.10;;;;;;4979641;28;20477;-80
2022/06/26 06:51:25;;;;;;;16.47;15.23;;;23.50;99.10;;;;;;4988839;28;20442;-81
2022/06/26 06:53:53;;;;;;;16.67;15.47;;;23.50;99.20;;;;;;4993255;28;20476;-81
2022/06/26 06:56:22;;;;;;;16.73;15.33;;;23.50;99.20;;;;;;4984820;28;20457;-80
2022/06/26 06:58:50;;;;;;;16.80;15.50;;;23.50;99.30;;;;;;4985054;28;20568;-80
2022/06/26 07:01:19;;;;;;;17.03;15.63;;;23.60;99.30;;;;;;4983502;28;20496;-80
2022/06/26 07:03:49;;;;;;;15.93;14.73;;;23.50;99.60;;;;;;4982714;28;20454;-81
2022/06/26 07:06:18;;;;;;;15.57;14.47;;;23.60;99.40;;;;;;4984086;28;21006;-80
2022/06/26 07:08:46;;;;;;;16.40;14.93;;;23.50;99.40;;;;;;4981167;28;20481;-80
2022/06/26 07:11:15;;;;;;;17.43;16.00;;;23.60;99.50;;;;;;4981033;28;20449;-81
2022/06/26 07:13:43;;;;;;;16.63;15.10;;;23.50;99.40;;;;;;4981352;28;20532;-81
2022/06/26 07:16:11;;;;;;;16.30;15.07;;;23.50;99.50;;;;;;4979761;28;20453;-80
2022/06/26 07:18:40;;;;;;;18.17;16.70;;;23.50;99.50;;;;;;4979796;28;20889;-81
2022/06/26 07:21:10;;;;;;;15.90;14.70;;;23.70;99.60;;;;;;4979882;28;21054;-83
2022/06/26 07:23:38;;;;;;;17.87;16.40;;;23.90;99.70;;;;;;4980105;28;20833;-81
2022/06/26 07:26:27;;;;;;;17.07;15.57;;;24.10;99.70;;;;;;4979398;28;20454;-80
2022/06/26 07:28:57;;;;;;;18.20;16.77;;;24.20;99.60;;;;;;4976922;28;20489;-79
2022/06/26 07:31:31;;;;;;;16.27;15.17;;;24.30;99.50;;;;;;4976336;28;20477;-78
2022/06/26 07:34:16;;;;;;;17.10;15.87;;;24.30;99.40;;;;;;4975469;28;20477;-78
2022/06/26 07:36:48;;;;;;;18.47;17.00;;;24.30;99.40;;;;;;4976116;28;20525;-79
2022/06/26 07:39:18;;;;;;;17.67;16.37;;;24.40;99.40;;;;;;4978503;28;20472;-80
2022/06/26 07:41:48;;;;;;;17.10;15.90;;;24.50;99.50;;;;;;4982344;28;20493;-81
2022/06/26 07:44:16;;;;;;;19.37;17.77;;;24.60;99.40;;;;;;4978981;28;20450;-81
2022/06/26 07:46:45;;;;;;;19.03;17.40;;;24.80;99.30;;;;;;4977837;28;21037;-80
2022/06/26 07:49:23;;;;;;;18.07;16.77;;;24.90;99.20;;;;;;4978843;28;20997;-80
2022/06/26 07:51:58;;;;;;;17.20;15.80;;;24.90;99.10;;;;;;4976892;28;20552;-79
2022/06/26 07:54:27;;;;;;;18.53;17.13;;;25.00;99.10;;;;;;4977475;28;20452;-79
2022/06/26 07:56:55;;;;;;;17.67;15.97;;;25.00;99.10;;;;;;4976879;28;20488;-82
2022/06/26 07:59:23;;;;;;;18.63;17.03;;;25.00;99.10;;;;;;4977583;28;20477;-82
2022/06/26 08:01:52;;;;;;;17.23;16.00;;;25.10;99.10;;;;;;4977846;28;20504;-82
2022/06/26 08:04:20;;;;;;;18.40;16.90;;;25.20;99.00;;;;;;4979287;28;20449;-81
2022/06/26 08:06:48;;;;;;;14.30;13.30;;;25.40;98.80;;;;;;4981002;28;20533;-81
2022/06/26 08:09:18;;;;;;;16.00;14.70;;;25.50;98.60;;;;;;4980697;28;20461;-81
2022/06/26 08:11:47;;;;;;;14.03;13.00;;;25.50;98.50;;;;;;4978637;28;20460;-80
2022/06/26 08:14:15;;;;;;;17.10;15.70;;;25.60;98.50;;;;;;4978965;28;20865;-80
2022/06/26 08:16:43;;;;;;;14.30;13.10;;;25.70;98.30;;;;;;4978769;28;20496;-80
2022/06/26 08:19:11;;;;;;;14.77;13.77;;;25.80;98.00;;;;;;4979845;28;20461;-83
2022/06/26 08:24:26;;;;;;;12.67;11.70;;;26.00;97.70;;;;;;4977685;28;20764;-78
2022/06/26 08:26:55;;;;;;;11.20;10.50;;;26.10;97.50;;;;;;4974695;28;20457;-79
2022/06/26 08:29:23;;;;;;;10.30;9.50;;;26.20;97.30;;;;;;4975770;28;20501;-77
2022/06/26 08:31:52;;;;;;;9.77;9.00;;;26.20;97.10;;;;;;4975277;28;20448;-78
2022/06/26 08:34:21;;;;;;;10.67;9.50;;;26.20;97.00;;;;;;4975427;28;20457;-78
2022/06/26 08:36:49;;;;;;;11.40;10.50;;;26.20;97.00;;;;;;4976527;28;20537;-77
2022/06/26 08:39:17;;;;;;;9.27;8.67;;;26.30;96.80;;;;;;4975837;28;20449;-78
2022/06/26 08:41:47;;;;;;;8.60;7.97;;;26.40;96.70;;;;;;4977012;28;20552;-79
2022/06/26 08:44:16;;;;;;;8.10;7.40;;;26.40;96.60;;;;;;4976720;28;20516;-78
2022/06/26 08:46:47;;;;;;;8.77;8.17;;;26.50;96.50;;;;;;4977541;28;20874;-79
2022/06/26 08:49:19;;;;;;;9.63;8.80;;;26.70;96.40;;;;;;4982387;28;20488;-79
2022/06/26 08:51:49;;;;;;;8.37;7.80;;;26.70;96.20;;;;;;4982019;28;20476;-78
2022/06/26 08:54:18;;;;;;;8.40;7.57;;;26.60;96.00;;;;;;4980894;28;20477;-78
2022/06/26 08:56:49;;;;;;;7.60;7.00;;;26.50;95.80;;;;;;4982341;28;20488;-78
2022/06/26 08:59:19;;;;;;;7.33;6.73;;;26.40;95.50;;;;;;4981433;28;20501;-78
2022/06/26 09:01:48;;;;;;;5.30;4.90;;;26.50;95.60;;;;;;4982408;28;20539;-79
2022/06/26 09:04:17;;;;;;;6.80;6.30;;;26.60;95.60;;;;;;4982077;28;20539;-78
2022/06/26 09:06:46;;;;;;;6.73;6.33;;;26.70;95.40;;;;;;4987970;28;20440;-77
2022/06/26 09:09:16;;;;;;;6.30;5.80;;;26.80;95.20;;;;;;4983409;28;20461;-78
2022/06/26 09:11:46;;;;;;;7.00;6.50;;;26.90;94.90;;;;;;4980693;28;20458;-79
2022/06/26 09:14:16;;;;;;;5.30;5.00;;;27.00;94.70;;;;;;4980235;28;20461;-79
2022/06/26 09:16:45;;;;;;;5.27;4.87;;;27.00;94.50;;;;;;4981810;28;20441;-78
2022/06/26 09:19:16;;;;;;;5.83;5.33;;;27.10;94.60;;;;;;4979178;28;20487;-79
2022/06/26 09:21:45;;;;;;;5.53;5.03;;;27.20;94.40;;;;;;4980849;28;20458;-79
2022/06/26 09:24:15;;;;;;;5.03;4.73;;;27.30;94.20;;;;;;4979001;28;20486;-79
2022/06/26 09:27:03;;;;;;;4.80;4.50;;;27.30;94.00;;;;;;4980222;28;20557;-79
2022/06/26 09:29:33;;;;;;;4.70;4.40;;;27.20;93.70;;;;;;4978962;28;20497;-79
2022/06/26 09:32:13;;;;;;;5.77;5.27;;;27.00;93.70;;;;;;4979726;28;20444;-79
2022/06/26 09:34:45;;;;;;;6.40;5.87;;;26.90;93.50;;;;;;4978301;28;20444;-79
2022/06/26 09:37:14;;;;;;;5.03;4.73;;;26.70;93.60;;;;;;4979014;28;20849;-79
2022/06/26 09:40:03;;;;;;;5.30;4.97;;;26.70;93.60;;;;;;4979653;28;20448;-78
2022/06/26 09:42:33;;;;;;;4.73;4.33;;;26.60;93.50;;;;;;4977823;28;20469;-78
2022/06/26 09:45:05;;;;;;;4.40;4.00;;;26.60;93.50;;;;;;4977343;28;20446;-78
2022/06/26 09:47:35;;;;;;;4.80;4.50;;;26.60;93.40;;;;;;4978524;28;20486;-79
2022/06/26 09:50:05;;;;;;;4.30;3.90;;;26.70;93.40;;;;;;4979714;28;20469;-79
2022/06/26 09:52:34;;;;;;;3.70;3.40;;;26.70;93.10;;;;;;4981600;28;20780;-79
2022/06/26 09:55:05;;;;;;;4.00;3.70;;;26.70;93.00;;;;;;4982317;28;20476;-79
2022/06/26 09:57:36;;;;;;;5.80;5.40;;;26.80;93.00;;;;;;4979986;28;20917;-79
2022/06/26 10:00:09;;;;;;;4.83;4.53;;;26.80;92.80;;;;;;4983280;28;20445;-83
2022/06/26 10:08:19;;;;;;;4.03;3.73;;;26.70;92.70;;;;;;4983870;28;20477;-81
2022/06/26 10:10:49;;;;;;;3.60;3.40;;;26.80;92.80;;;;;;4981714;28;20453;-81
2022/06/26 10:13:26;;;;;;;3.87;3.50;;;26.90;92.60;;;;;;4978889;28;20472;-80
2022/06/26 10:16:04;;;;;;;3.40;3.07;;;26.90;92.50;;;;;;4979328;28;20525;-80
2022/06/26 10:18:46;;;;;;;3.57;3.27;;;26.80;92.40;;;;;;4980454;28;20462;-81
2022/06/26 10:21:14;;;;;;;3.30;3.00;;;26.80;92.40;;;;;;4978693;28;20448;-80
2022/06/26 10:23:44;;;;;;;3.10;2.80;;;26.80;92.40;;;;;;4979794;28;20560;-81
2022/06/26 10:26:14;;;;;;;4.37;3.50;;;26.90;92.50;;;;;;4977658;28;20460;-77
2022/06/26 10:28:59;;;;;;;3.50;3.20;;;26.90;92.40;;;;;;4979070;28;20477;-78
2022/06/26 10:31:32;;;;;;;3.33;3.03;;;27.00;92.50;;;;;;4984230;28;20489;-78
2022/06/26 10:34:10;;;;;;;3.27;3.07;;;27.10;92.30;;;;;;4984124;28;20426;-78
2022/06/26 10:36:39;;;;;;;3.03;2.83;;;27.10;92.00;;;;;;4985344;28;20450;-79
2022/06/26 10:39:08;;;;;;;3.23;3.03;;;27.10;91.90;;;;;;4991745;28;20465;-80
2022/06/26 10:44:37;;;;;;;3.83;3.53;;;27.00;91.80;;;;;;4986929;28;20432;-79
2022/06/26 10:47:15;;;;;;;3.80;3.47;;;27.00;91.80;;;;;;4977332;28;20441;-76
2022/06/26 10:49:48;;;;;;;3.43;3.13;;;27.00;91.70;;;;;;4976429;28;20426;-76
2022/06/26 10:52:31;;;;;;;4.00;3.13;;;27.00;91.60;;;;;;4975186;28;20989;-76
2022/06/26 10:55:00;;;;;;;3.20;3.00;;;27.10;91.60;;;;;;4976269;28;20433;-76
2022/06/26 10:57:35;;;;;;;3.47;3.17;;;27.10;91.50;;;;;;4976276;28;20438;-77
2022/06/26 11:00:06;;;;;;;4.13;3.73;;;27.20;91.40;;;;;;4974791;28;20479;-76
2022/06/26 11:02:37;;;;;;;4.37;4.07;;;27.10;91.30;;;;;;4976051;28;20466;-76
2022/06/26 11:05:07;;;;;;;4.40;4.00;;;27.10;91.20;;;;;;4976249;28;20934;-76
2022/06/26 11:07:44;;;;;;;3.90;3.60;;;27.00;91.10;;;;;;4974919;28;20477;-77
2022/06/26 11:10:22;;;;;;;3.90;3.60;;;27.00;91.00;;;;;;4975831;28;20425;-76
2022/06/26 11:12:53;;;;;;;4.17;3.77;;;26.90;91.00;;;;;;4974857;28;20496;-76
2022/06/26 11:15:23;;;;;;;3.93;3.53;;;26.90;91.10;;;;;;4976111;28;20426;-76
2022/06/26 11:17:58;;;;;;;3.40;3.10;;;26.90;91.20;;;;;;4975767;28;20516;-76
2022/06/26 11:20:50;;;;;;;3.33;3.10;;;26.80;91.10;;;;;;4976340;28;20422;-76
2022/06/26 11:23:21;;;;;;;3.57;3.27;;;26.80;91.20;;;;;;4975784;28;20816;-76
2022/06/26 11:25:51;;;;;;;3.80;3.40;;;26.80;91.20;;;;;;4976212;28;20469;-76
2022/06/26 11:28:19;;;;;;;5.13;3.67;;;26.70;91.10;;;;;;4974582;28;20493;-76
2022/06/26 11:30:49;;;;;;;4.40;3.67;;;26.70;91.10;;;;;;4975653;28;20437;-75
2022/06/26 11:33:26;;;;;;;4.20;3.80;;;26.70;91.40;;;;;;4974280;28;20438;-76
2022/06/26 11:35:55;;;;;;;12.03;11.03;;;26.70;91.00;;;;;;4976006;28;20426;-76
2022/06/26 11:38:23;;;;;;;11.47;10.40;;;26.70;91.10;;;;;;4975588;28;20461;-76
2022/06/26 11:40:52;;;;;;;3.80;3.50;;;26.70;91.10;;;;;;4974175;28;20557;-76
2022/06/26 11:43:20;;;;;;;4.40;4.10;;;26.80;91.10;;;;;;4975299;28;20824;-76
2022/06/26 11:45:48;;;;;;;4.17;3.87;;;26.90;91.10;;;;;;4974150;28;20541;-75
2022/06/26 11:48:18;;;;;;;3.80;3.50;;;26.90;91.00;;;;;;4975549;28;20496;-75
2022/06/26 11:50:53;;;;;;;3.67;3.47;;;27.00;91.10;;;;;;4976272;28;20441;-76
2022/06/26 11:53:23;;;;;;;3.60;3.30;;;27.10;90.80;;;;;;4975914;28;20421;-75
2022/06/26 11:55:53;;;;;;;3.63;3.37;;;27.20;90.90;;;;;;4978037;28;20481;-81
2022/06/26 11:58:23;;;;;;;4.07;3.50;;;27.20;90.70;;;;;;4981283;28;20521;-78
2022/06/26 12:01:03;;;;;;;4.10;3.80;;;27.20;90.70;;;;;;4975195;28;20457;-77
2022/06/26 12:03:31;;;;;;;3.53;3.23;;;27.30;90.70;;;;;;4975540;28;20524;-76
2022/06/26 12:06:01;;;;;;;3.33;3.13;;;27.30;90.60;;;;;;4975068;28;20434;-76
2022/06/26 12:08:31;;;;;;;3.63;3.40;;;27.40;90.50;;;;;;4975368;28;20487;-77
2022/06/26 12:11:00;;;;;;;3.70;3.40;;;27.40;90.40;;;;;;4974044;28;20846;-76
2022/06/26 12:13:30;;;;;;;3.57;3.27;;;27.50;90.50;;;;;;4975457;28;20803;-77
2022/06/26 12:16:03;;;;;;;4.13;3.47;;;27.50;90.20;;;;;;4973781;28;20434;-77
2022/06/26 12:18:34;;;;;;;3.43;3.13;;;27.50;90.10;;;;;;4975334;28;20465;-77
2022/06/26 12:21:05;;;;;;;3.77;3.57;;;27.60;90.00;;;;;;4973470;28;20450;-77
2022/06/26 12:23:38;;;;;;;3.50;3.30;;;27.60;89.80;;;;;;4972863;28;20489;-75
2022/06/26 12:26:09;;;;;;;4.27;3.20;;;27.70;89.60;;;;;;4973938;28;20444;-75
2022/06/26 12:28:45;;;;;;;3.93;3.63;;;27.70;89.20;;;;;;4974866;28;20461;-74
2022/06/26 12:31:14;;;;;;;4.10;3.80;;;27.80;88.80;;;;;;4974846;28;20422;-74
2022/06/26 12:33:45;;;;;;;3.73;3.53;;;27.80;88.70;;;;;;4973313;28;20446;-76
2022/06/26 12:36:15;;;;;;;3.40;3.00;;;27.80;88.10;;;;;;4973279;28;20446;-75
2022/06/26 12:38:44;;;;;;;3.30;3.00;;;27.80;87.90;;;;;;4974939;28;20461;-76
2022/06/26 12:41:20;;;;;;;3.57;3.27;;;27.80;87.50;;;;;;4974826;28;20524;-76
2022/06/26 12:43:49;;;;;;;3.70;3.40;;;27.80;87.20;;;;;;4973338;28;20512;-76
2022/06/26 12:46:26;;;;;;;3.00;2.80;;;27.90;87.20;;;;;;4973470;28;20437;-75
2022/06/26 12:48:54;;;;;;;4.60;3.50;;;27.90;86.80;;;;;;4973262;28;20516;-74
2022/06/26 12:51:24;;;;;;;3.47;3.17;;;28.00;86.30;;;;;;4973240;28;20504;-76
2022/06/26 12:53:53;;;;;;;3.03;2.73;;;28.00;86.20;;;;;;4974674;28;20434;-75
2022/06/26 12:56:22;;;;;;;3.20;2.90;;;28.00;85.50;;;;;;4973160;28;20453;-76
2022/06/26 12:58:50;;;;;;;3.60;3.30;;;28.10;85.10;;;;;;4973599;28;21064;-77
2022/06/26 13:01:18;;;;;;;3.40;3.10;;;28.20;84.90;;;;;;4974835;28;20418;-76
2022/06/26 13:03:52;;;;;;;3.30;2.90;;;28.20;84.50;;;;;;4974273;28;20504;-75
2022/06/26 13:06:20;;;;;;;4.40;3.80;;;28.20;84.10;;;;;;4974712;28;20458;-74
2022/06/26 13:08:50;;;;;;;3.80;3.50;;;28.30;83.70;;;;;;4974435;28;20967;-74
2022/06/26 13:11:27;;;;;;;3.30;3.10;;;28.40;83.60;;;;;;4974503;28;20442;-75
2022/06/26 13:13:55;;;;;;;3.77;3.47;;;28.30;84.30;;;;;;4973697;28;20481;-75
2022/06/26 13:16:41;;;;;;;3.27;2.97;;;28.20;83.70;;;;;;4974948;28;20425;-75
2022/06/26 13:19:10;;;;;;;3.67;3.40;;;28.30;83.50;;;;;;4974452;28;20520;-78